createdAt,value
2018-03-28T15:30:16.542Z,11.48
2018-03-28T15:32:44.119Z,11.64
2018-03-28T15:35:11.527Z,11.83
2018-03-28T15:37:39.840Z,11.94
2018-03-28T15:40:07.324Z,12.14
2018-03-28T15:42:35.168Z,12.30
2018-03-28T15:45:02.961Z,12.38
2018-03-28T15:47:30.358Z,12.41
2018-03-28T15:49:57.875Z,12.48
2018-03-28T15:52:25.315Z,12.58
2018-03-28T15:54:52.776Z,12.69
2018-03-28T15:57:20.216Z,12.74
2018-03-28T15:59:47.671Z,12.70
2018-03-28T16:02:15.141Z,12.72
2018-03-28T16:04:42.862Z,12.62
2018-03-28T16:07:10.355Z,12.54
2018-03-28T16:09:37.976Z,12.56
2018-03-28T16:12:06.104Z,12.51
2018-03-28T16:14:33.562Z,12.40
2018-03-28T16:17:01.051Z,12.20
2018-03-28T16:19:28.489Z,12.15
2018-03-28T16:21:55.945Z,12.12
2018-03-28T16:24:23.434Z,12.18
2018-03-28T16:26:51.042Z,12.22
2018-03-28T16:29:18.912Z,12.22
2018-03-28T16:31:46.425Z,12.17
2018-03-28T16:34:14.275Z,12.21
2018-03-28T16:36:41.738Z,12.23
2018-03-28T16:39:09.148Z,12.22
2018-03-28T16:41:36.651Z,12.20
2018-03-28T16:44:04.158Z,12.21
2018-03-28T16:46:31.610Z,12.30
2018-03-28T16:48:59.038Z,12.30
2018-03-28T16:51:26.515Z,12.30
2018-03-28T16:53:54.005Z,12.29
2018-03-28T16:56:21.432Z,12.29
2018-03-28T16:58:49.453Z,12.17
2018-03-28T17:01:16.889Z,12.10
2018-03-28T17:03:44.663Z,12.03
2018-03-28T17:06:12.263Z,12.03
2018-03-28T17:08:39.723Z,12.02
2018-03-28T17:11:07.161Z,11.95
2018-03-28T17:13:34.683Z,11.81
2018-03-28T17:16:02.126Z,11.84
2018-03-28T17:18:29.776Z,11.90
2018-03-28T17:20:57.279Z,11.97
2018-03-28T17:23:24.761Z,11.93
2018-03-28T17:25:52.225Z,11.90
2018-03-28T17:28:19.652Z,11.91
2018-03-28T17:30:47.157Z,11.86
2018-03-28T17:33:15.138Z,11.96
2018-03-28T17:35:42.769Z,11.92
2018-03-28T17:38:14.242Z,11.92
2018-03-28T17:40:41.780Z,11.91
2018-03-28T17:43:09.424Z,11.83
2018-03-28T17:45:37.044Z,11.62
2018-03-28T17:48:04.639Z,11.71
2018-03-28T17:50:32.145Z,11.82
2018-03-28T17:52:59.659Z,11.85
2018-03-28T17:55:27.024Z,11.67
2018-03-28T17:57:54.484Z,11.67
2018-03-28T18:00:21.898Z,11.73
2018-03-28T18:02:49.358Z,11.83
2018-03-28T18:05:16.930Z,11.82
2018-03-28T18:07:44.458Z,11.87
2018-03-28T18:10:11.977Z,11.87
2018-03-28T18:12:39.475Z,11.87
2018-03-28T18:15:06.928Z,11.86
2018-03-28T18:17:34.371Z,11.79
2018-03-28T18:20:01.862Z,11.71
2018-03-28T18:22:29.283Z,11.57
2018-03-28T18:24:56.787Z,11.61
2018-03-28T18:27:27.640Z,11.67
2018-03-28T18:29:56.919Z,11.74
2018-03-28T18:32:24.345Z,11.81
2018-03-28T18:34:51.825Z,11.80
2018-03-28T18:37:19.327Z,11.72
2018-03-28T18:39:47.211Z,11.85
2018-03-28T18:42:14.633Z,11.79
2018-03-28T18:44:42.208Z,11.66
2018-03-28T18:47:09.675Z,11.68
2018-03-28T18:49:37.173Z,11.80
2018-03-28T18:52:05.378Z,11.90
2018-03-28T18:54:32.799Z,11.76
2018-03-28T18:57:00.248Z,11.69
2018-03-28T18:59:27.732Z,11.80
2018-03-28T19:01:55.186Z,11.67
2018-03-28T19:04:22.654Z,11.61
2018-03-28T19:06:50.147Z,11.49
2018-03-28T19:09:17.602Z,11.63
2018-03-28T19:11:45.049Z,11.61
2018-03-28T19:14:12.781Z,11.73
2018-03-28T19:16:40.229Z,11.69
2018-03-28T19:19:07.664Z,11.73
2018-03-28T19:21:35.127Z,11.66
2018-03-28T19:24:02.584Z,11.68
2018-03-28T19:26:30.047Z,11.72
2018-03-28T19:28:57.564Z,11.73
2018-03-28T19:31:25.211Z,11.54
2018-03-28T19:33:52.910Z,11.62
2018-03-28T19:36:20.548Z,11.68
2018-03-28T19:38:48.128Z,11.66
2018-03-28T19:41:15.713Z,11.72
2018-03-28T19:43:43.282Z,11.78
2018-03-28T19:46:11.441Z,11.73
2018-03-28T19:48:38.924Z,11.68
2018-03-28T19:51:06.378Z,11.56
2018-03-28T19:53:33.806Z,11.56
2018-03-28T19:56:01.400Z,11.66
2018-03-28T19:58:29.241Z,11.47
2018-03-28T20:00:57.146Z,11.64
2018-03-28T20:03:24.645Z,11.57
2018-03-28T20:05:52.197Z,11.73
2018-03-28T20:08:19.681Z,11.73
2018-03-28T20:10:47.125Z,11.64
2018-03-28T20:13:15.013Z,11.71
2018-03-28T20:15:42.461Z,11.61
2018-03-28T20:18:09.910Z,11.67
2018-03-28T20:20:37.390Z,11.62
2018-03-28T20:23:05.474Z,11.62
2018-03-28T20:25:32.935Z,11.69
2018-03-28T20:28:01.027Z,11.74
2018-03-28T20:30:28.548Z,11.66
2018-03-28T20:32:56.120Z,11.39
2018-03-28T20:35:23.655Z,11.66
2018-03-28T20:37:51.272Z,11.74
2018-03-28T20:40:18.915Z,11.66
2018-03-28T20:42:46.459Z,11.70
2018-03-28T20:45:13.966Z,11.66
2018-03-28T20:47:41.394Z,11.63
2018-03-28T20:50:09.015Z,11.78
2018-03-28T20:52:36.552Z,11.86
2018-03-28T20:55:04.010Z,11.87
2018-03-28T20:57:31.450Z,11.83
2018-03-28T20:59:58.875Z,11.73
2018-03-28T21:02:26.327Z,11.74
2018-03-28T21:04:53.898Z,11.73
2018-03-28T21:07:22.386Z,11.51
2018-03-28T21:09:49.888Z,11.19
2018-03-28T21:12:17.368Z,11.09
2018-03-28T21:14:44.791Z,11.18
2018-03-28T21:17:12.260Z,11.05
2018-03-28T21:19:39.680Z,10.88
2018-03-28T21:22:07.122Z,10.74
2018-03-28T21:24:34.594Z,11.05
2018-03-28T21:27:02.117Z,11.14
2018-03-28T21:29:30.653Z,11.10
2018-03-28T21:31:58.122Z,11.29
2018-03-28T21:34:25.637Z,10.99
2018-03-28T21:36:53.124Z,11.11
2018-03-28T21:39:20.570Z,11.08
2018-03-28T21:41:47.995Z,10.95
2018-03-28T21:44:15.556Z,11.16
2018-03-28T21:46:43.094Z,11.16
2018-03-28T21:49:10.523Z,11.34
2018-03-28T21:51:38.044Z,11.26
2018-03-28T21:54:05.625Z,11.41
2018-03-28T21:56:33.074Z,11.46
2018-03-28T21:59:00.585Z,11.43
2018-03-28T22:01:28.048Z,11.46
2018-03-28T22:03:55.477Z,11.20
2018-03-28T22:06:22.935Z,11.26
2018-03-28T22:08:50.398Z,11.30
2018-03-28T22:11:17.968Z,11.35
2018-03-28T22:13:45.501Z,11.17
2018-03-28T22:16:12.932Z,10.97
2018-03-28T22:18:40.390Z,11.11
2018-03-28T22:21:08.007Z,11.19
2018-03-28T22:23:35.703Z,10.60
2018-03-28T22:26:03.273Z,10.55
2018-03-28T22:28:30.942Z,10.26
2018-03-28T22:30:58.468Z,10.13
2018-03-28T22:33:26.056Z,10.04
2018-03-28T22:35:53.509Z,9.89
2018-03-28T22:38:20.965Z,10.00
2018-03-28T22:40:49.245Z,9.92
2018-03-28T22:43:16.664Z,9.93
2018-03-28T22:45:44.106Z,9.64
2018-03-28T22:48:11.539Z,9.49
2018-03-28T22:50:38.980Z,9.56
2018-03-28T22:53:06.439Z,9.51
2018-03-28T22:55:34.503Z,9.49
2018-03-28T22:58:02.032Z,9.26
2018-03-28T23:00:29.613Z,9.10
2018-03-28T23:02:57.171Z,9.26
2018-03-28T23:05:24.728Z,9.13
2018-03-28T23:07:52.297Z,9.11
2018-03-28T23:10:19.865Z,8.93
2018-03-28T23:12:47.499Z,9.09
2018-03-28T23:15:15.072Z,8.81
2018-03-28T23:17:42.459Z,8.71
2018-03-28T23:20:09.994Z,8.90
2018-03-28T23:22:40.311Z,8.84
2018-03-28T23:25:07.730Z,8.50
2018-03-28T23:27:35.145Z,8.41
2018-03-28T23:30:02.597Z,8.45
2018-03-28T23:32:30.169Z,8.50
2018-03-28T23:34:57.684Z,8.64
2018-03-28T23:37:25.243Z,8.75
2018-03-28T23:39:52.839Z,8.43
2018-03-28T23:42:20.447Z,8.57
2018-03-28T23:44:48.142Z,8.53
2018-03-28T23:47:15.607Z,8.65
2018-03-28T23:49:43.060Z,8.70
2018-03-28T23:52:10.506Z,8.48
2018-03-28T23:54:37.926Z,8.59
2018-03-28T23:57:05.379Z,8.89
2018-03-28T23:59:32.793Z,8.89
